x

South Santa Rosa Is. Ca (46069) Wave Buoy

12:50 - Fri 22nd Sep 2017 All times are PDT. -7 hours from GMT.

  • Sig Wave height 6.6ft
  • Swell Direction
  • Peak Period 11s
  • Average Period 6s
  • Wind
    20mph, 22mph gusts
  • Sea Temp 62°f
  • Aire Temp 61°f
  • Sea Pressure 1012.3mb
  • South Santa Rosa Is. Ca
  • South Santa Rosa Is. Ca

More Historic Weather Station data

Upgrade to MSW Pro to gain access to the past 30 days of data for over 8000 Wavebouys and Weather Stations around the globe.

Join

Comparision Forecast

View Surf forecast
   
vie 09/22 12:50 6.5ft 11s 6s 20 22 mph 1012.3mb 62f 61f
11:50 6.5ft 11s 6s 20 22 mph 1012.7mb 62f 60f
10:50 7ft 11s 6s 20 25 mph 1012.8mb 62f 61f
9:50 8ft 10s 6s 22 27 mph 1012.7mb 62f 60f
8:50 8ft 11s 7s 22 27 mph 1012.3mb 61f 60f
7:50 8ft 11s 6s 22 27 mph 1011.9mb 62f 60f
6:50 9ft 8s 6s 27 34 mph 1011.5mb 62f 60f
5:50 8.5ft 8s 6s 27 34 mph 1011mb 62f 60f
4:50 8.5ft 8s 6s 27 34 mph 1011mb 62f 60f
3:50 8ft 11s 6s 27 34 mph 1010.8mb 62f 60f
2:50 8.5ft 11s 6s 29 36 mph 1010.7mb 62f 60f
1:50 10ft 11s 6s 31 38 mph 1010.8mb 62f 61f
12:50 9.5ft 10s 6s 31 36 mph 1010.9mb 63f 61f
jue 09/21 11:50 9ft 11s 6s 31 38 mph 1010.7mb 63f 61f
10:50 9ft 11s 6s 31 36 mph 1011mb 63f 61f
9:50 10ft 11s 6s 29 36 mph 1011.4mb 63f 62f
8:50 7.5ft 11s 6s 27 36 mph 1011.6mb 64f 62f
7:50 8ft 11s 6s 27 31 mph 1011.3mb 64f 62f
6:50 8ft 11s 6s 27 31 mph 1011.2mb 64f 62f
5:50 8ft 12s 6s 25 31 mph 1011.3mb 64f 62f
4:50 8ft 6s 6s 29 36 mph 1011mb 64f 63f
3:50 7.5ft 12s 6s 27 31 mph 1011.2mb 64f 63f
2:50 8ft 11s 6s 27 34 mph 1011.6mb 65f 62f
1:50 8ft 12s 6s 25 31 mph 1012mb 65f 62f
12:50 7ft 12s 6s 27 31 mph 1012.4mb 64f 62f
11:50 7.5ft 12s 6s 25 29 mph 1012.7mb 64f 62f
10:50 7ft 11s 6s 22 27 mph 1013mb 64f 62f
9:50 6ft 13s 6s 25 29 mph 1012.8mb 64f 62f
8:50 6.5ft 12s 7s 20 27 mph 1012.3mb 64f 62f
7:50 7ft 13s 7s 20 25 mph 1012mb 64f 62f
6:50 7ft 12s 7s 18 22 mph 1011.7mb 64f 62f
5:50 7ft 13s 8s 18 22 mph 1011.2mb 64f 62f
4:50 6.5ft 13s 7s 20 25 mph 1011mb 64f 62f
3:50 7ft 13s 7s 20 22 mph 1010.8mb 64f 62f
2:50 7ft 14s 7s 20 25 mph 1011mb 64f 63f
1:50 8ft 12s 7s 18 22 mph 1011.2mb 65f 63f
12:50 8ft 13s 7s 22 27 mph 1011mb 65f 63f
mié 09/20 11:50 8ft 13s 7s 18 22 mph 1011.6mb 65f 63f
10:50 9ft 14s 7s 22 27 mph 1011.4mb 65f 62f
9:50 9ft 13s 7s 22 29 mph 1011.2mb 65f 62f
8:50 8.5ft 13s 7s 20 27 mph 1011.6mb 65f 63f
7:50 9ft 13s 7s 22 27 mph 1011.1mb 65f 63f
6:50 9ft 14s 8s 25 29 mph 1010.9mb 65f 63f
5:50 9ft 13s 8s 25 27 mph 1011.2mb 65f 63f
4:50 8.5ft 13s 8s 22 27 mph 1011.5mb 65f 63f
3:50 9ft 14s 8s 22 25 mph 1011.8mb 65f 62f
2:50 9ft 13s 8s 20 22 mph 1012mb 65f 63f
1:50 9ft 14s 8s 16 18 mph 1012.4mb 65f 63f
12:50 9ft 14s 8s 11 13 mph 1012.7mb 65f 64f
11:50 9ft 14s 8s 7 7 mph 1012.9mb 65f 64f
10:50 8.5ft 14s 8s 9 11 mph 1012.7mb 65f 63f
9:50 10.5ft 15s 8s 13 16 mph 1012.4mb 64f 62f
8:50 10ft 15s 8s 16 20 mph 1011.7mb 64f 62f
7:50 9.5ft 15s 7s 18 22 mph 1011.4mb 64f 62f
6:50 10.5ft 15s 8s 22 27 mph 1010.8mb 64f 62f
5:50 10.5ft 15s 8s 27 31 mph 1010.3mb 64f 62f
4:50 9ft 8s 7s 25 31 mph 1010.2mb 65f 62f
3:50 8.5ft 15s 7s 25 29 mph 1010.5mb 65f 62f
2:50 8ft 8s 6s 27 31 mph 1010.9mb 65f 62f
1:50 8.5ft 9s 6s 25 29 mph 1011.1mb 65f 62f
12:50 9.5ft 8s 6s 27 31 mph 1011.5mb 65f 63f
mar 09/19 11:50 9ft 9s 6s 25 31 mph 1012.1mb 65f 63f
10:50 8ft 8s 6s 25 29 mph 1012.1mb 65f 63f
9:50 8ft 8s 6s 27 31 mph 1011.9mb 65f 63f
8:50 9ft 8s 6s 27 36 mph 1011.6mb 65f 63f
7:50 9ft 8s 6s 25 31 mph 1011.6mb 65f 63f
6:50 9ft 8s 6s 27 34 mph 1011.6mb 65f 63f
5:50 8ft 8s 6s 27 31 mph 1011.8mb 65f 63f
4:50 8ft 8s 6s 27 31 mph 1011.9mb 65f 63f
3:50 7ft 8s 6s 25 29 mph 1012.3mb 65f 63f
2:50 6.5ft 8s 6s 25 29 mph 1012.8mb 65f 63f
1:50 7ft 8s 6s 25 29 mph 1013.2mb 65f 63f
12:50 7ft 8s 6s 20 25 mph 1014mb 65f 63f
11:50 7ft 8s 6s 20 25 mph 1014.3mb 65f 63f
10:50 7ft 8s 6s 22 27 mph 1014.2mb 65f 62f
9:50 8ft 8s 6s 22 29 mph 1014.1mb 65f 62f
8:50 7.5ft 8s 6s 25 31 mph 1013.6mb 65f 62f
7:50 8ft 7s 6s 27 34 mph 1013.3mb 65f 62f
6:50 7ft 7s 6s 27 34 mph 1013mb 65f 62f
5:50 7ft 7s 5s 29 36 mph 1012.8mb 65f 63f
4:50 6.5ft 7s 5s 27 31 mph 1012.7mb 65f 63f
3:50 7ft 7s 6s 27 34 mph 1012.7mb 65f 63f
2:50 6.5ft 7s 5s 29 34 mph 1012.6mb 65f 64f
1:50 6ft 6s 5s 25 34 mph 1012.7mb 65f 64f
12:50 6ft 7s 5s 27 31 mph 1012.7mb 65f 64f
lun 09/18 11:50 6ft 6s 5s 27 31 mph 1012.9mb 65f 64f
10:50 7ft 6s 5s 27 31 mph 1013.2mb 65f 64f
9:50 6ft 7s 5s 27 31 mph 1013mb 65f 64f
8:50 6.5ft 6s 5s 27 31 mph 1012.7mb 65f 64f